createdAt,value
2023-03-17T00:02:53.684Z,93737.53
2023-03-17T00:05:59.499Z,93740.84
2023-03-17T00:09:03.788Z,93738.38
2023-03-17T00:12:12.012Z,93750.28
2023-03-17T00:15:15.588Z,93755.03
2023-03-17T00:18:20.743Z,93755.19
2023-03-17T00:21:29.111Z,93756.59
2023-03-17T00:24:33.067Z,93761.41
2023-03-17T00:27:35.998Z,93749.97
2023-03-17T00:30:39.697Z,93752.28
2023-03-17T00:33:43.599Z,93757.97
2023-03-17T00:36:51.659Z,93755.28
2023-03-17T00:39:58.551Z,93758.09
2023-03-17T00:43:03.352Z,93753.53
2023-03-17T00:46:25.792Z,93756.09
2023-03-17T00:49:29.774Z,93756.59
2023-03-17T00:52:34.038Z,93766.03
2023-03-17T00:55:38.160Z,93756.94
2023-03-17T00:58:42.674Z,93756.94
2023-03-17T01:01:46.830Z,93762.34
2023-03-17T01:04:59.509Z,93770.56
2023-03-17T01:08:07.132Z,93765.22
2023-03-17T01:11:19.261Z,93766.34
2023-03-17T01:14:23.987Z,93771.50
2023-03-17T01:17:27.278Z,93761.91
2023-03-17T01:20:36.747Z,93767.41
2023-03-17T01:23:41.790Z,93760.47
2023-03-17T01:26:45.896Z,93750.44
2023-03-17T01:29:52.858Z,93764.47
2023-03-17T01:32:58.780Z,93748.31
2023-03-17T01:36:01.894Z,93751.25
2023-03-17T01:39:05.818Z,93748.53
2023-03-17T01:42:09.404Z,93745.31
2023-03-17T01:45:50.240Z,93752.63
2023-03-17T01:49:11.348Z,93741.19
2023-03-17T01:52:17.200Z,93734.03
2023-03-17T01:55:21.158Z,93729.16
2023-03-17T01:58:27.069Z,93722.38
2023-03-17T02:01:38.387Z,93716.31
2023-03-17T02:04:41.838Z,93725.34
2023-03-17T02:07:48.416Z,93711.41
2023-03-17T02:10:53.238Z,93707.41
2023-03-17T02:13:56.261Z,93703.41
2023-03-17T02:17:00.481Z,93700.00
2023-03-17T02:20:30.046Z,93699.94
2023-03-17T02:23:33.272Z,93701.72
2023-03-17T02:26:37.423Z,93697.72
2023-03-17T02:29:42.991Z,93680.66
2023-03-17T02:32:46.950Z,93678.22
2023-03-17T02:35:50.027Z,93677.75
2023-03-17T02:38:53.416Z,93667.81
2023-03-17T02:41:56.488Z,93664.53
2023-03-17T02:45:00.167Z,93644.78
2023-03-17T02:48:03.276Z,93665.03
2023-03-17T02:51:06.600Z,93662.91
2023-03-17T02:54:10.334Z,93661.84
2023-03-17T02:57:13.415Z,93660.34
2023-03-17T03:00:17.120Z,93654.34
2023-03-17T03:03:19.953Z,93654.38
2023-03-17T03:06:24.541Z,93653.00
2023-03-17T03:09:28.245Z,93646.59
2023-03-17T03:12:31.522Z,93646.44
2023-03-17T03:15:34.545Z,93641.81
2023-03-17T03:18:38.393Z,93645.28
2023-03-17T03:21:41.310Z,93644.59
2023-03-17T03:24:44.648Z,93637.78
2023-03-17T03:27:48.283Z,93643.19
2023-03-17T03:30:51.871Z,93637.16
2023-03-17T03:33:55.244Z,93631.50
2023-03-17T03:36:59.052Z,93627.78
2023-03-17T03:40:03.699Z,93623.31
2023-03-17T03:43:22.049Z,93619.84
2023-03-17T03:46:27.295Z,93621.31
2023-03-17T03:49:30.984Z,93622.81
2023-03-17T03:52:34.706Z,93629.91
2023-03-17T03:55:37.761Z,93611.44
2023-03-17T03:58:42.436Z,93611.94
2023-03-17T04:01:46.581Z,93600.25
2023-03-17T04:04:49.625Z,93608.94
2023-03-17T04:07:53.115Z,93612.16
2023-03-17T04:10:56.320Z,93606.84
2023-03-17T04:14:00.522Z,93604.94
2023-03-17T04:17:05.188Z,93593.13
2023-03-17T04:20:09.308Z,93594.06
2023-03-17T04:23:12.476Z,93582.41
2023-03-17T04:26:18.394Z,93575.56
2023-03-17T04:29:21.612Z,93575.06
2023-03-17T04:32:27.133Z,93568.75
2023-03-17T04:35:31.167Z,93560.03
2023-03-17T04:38:35.266Z,93553.69
2023-03-17T04:41:38.877Z,93554.09
2023-03-17T04:44:44.011Z,93559.97
2023-03-17T04:47:47.872Z,93547.81
2023-03-17T04:50:52.476Z,93542.16
2023-03-17T04:53:56.612Z,93548.81
2023-03-17T04:56:59.680Z,93537.53
2023-03-17T05:00:02.759Z,93529.63
2023-03-17T05:03:23.870Z,93530.09
2023-03-17T05:06:30.020Z,93521.41
2023-03-17T05:09:33.448Z,93524.78
2023-03-17T05:12:36.508Z,93514.66
2023-03-17T05:15:41.209Z,93507.13
2023-03-17T05:18:44.241Z,93499.53
2023-03-17T05:21:48.210Z,93498.84
2023-03-17T05:24:51.826Z,93500.81
2023-03-17T05:27:54.874Z,93493.47
2023-03-17T05:30:58.309Z,93492.56
2023-03-17T05:34:02.022Z,93485.44
2023-03-17T05:37:06.502Z,93489.00
2023-03-17T05:40:13.331Z,93490.28
2023-03-17T05:43:17.485Z,93477.53
2023-03-17T05:46:21.398Z,93469.31
2023-03-17T05:49:25.010Z,93465.16
2023-03-17T05:52:29.444Z,93468.53
2023-03-17T05:55:33.124Z,93456.63
2023-03-17T05:58:36.792Z,93465.00
2023-03-17T06:01:39.857Z,93455.63
2023-03-17T06:04:44.136Z,93461.44
2023-03-17T06:07:54.627Z,93434.94
2023-03-17T06:10:59.238Z,93437.31
2023-03-17T06:14:02.656Z,93437.94
2023-03-17T06:17:06.113Z,93432.41
2023-03-17T06:20:10.082Z,93418.03
2023-03-17T06:23:13.608Z,93410.06
2023-03-17T06:26:17.218Z,93416.44
2023-03-17T06:29:20.889Z,93422.09
2023-03-17T06:32:24.445Z,93417.19
2023-03-17T06:35:28.537Z,93418.75
2023-03-17T06:38:32.510Z,93420.22
2023-03-17T06:41:35.789Z,93410.06
2023-03-17T06:44:38.833Z,93403.75
2023-03-17T06:47:42.224Z,93401.25
2023-03-17T06:50:47.993Z,93409.84
2023-03-17T06:53:51.581Z,93403.25
2023-03-17T06:56:54.778Z,93389.09
2023-03-17T06:59:57.808Z,93376.59
2023-03-17T07:03:00.879Z,93374.63
2023-03-17T07:06:05.074Z,93370.75
2023-03-17T07:09:08.224Z,93376.31
2023-03-17T07:12:12.277Z,93382.56
2023-03-17T07:15:15.779Z,93383.34
2023-03-17T07:18:19.752Z,93366.94
2023-03-17T07:21:23.541Z,93372.91
2023-03-17T07:24:27.244Z,93371.16
2023-03-17T07:27:30.352Z,93368.91
2023-03-17T07:30:34.349Z,93374.84
2023-03-17T07:33:38.056Z,93360.38
2023-03-17T07:36:41.294Z,93357.47
2023-03-17T07:39:45.353Z,93357.06
2023-03-17T07:42:49.409Z,93353.41
2023-03-17T07:45:52.841Z,93352.91
2023-03-17T07:48:56.273Z,93340.28
2023-03-17T07:51:59.555Z,93336.47
2023-03-17T07:55:04.108Z,93334.06
2023-03-17T07:58:08.172Z,93327.84
2023-03-17T08:01:11.669Z,93321.00
2023-03-17T08:04:15.260Z,93321.47
2023-03-17T08:07:19.484Z,93309.91
2023-03-17T08:10:23.448Z,93322.91
2023-03-17T08:13:26.908Z,93315.16
2023-03-17T08:16:31.556Z,93301.94
2023-03-17T08:19:35.355Z,93313.28
2023-03-17T08:22:38.455Z,93312.84
2023-03-17T08:25:42.770Z,93314.97
2023-03-17T08:28:46.775Z,93313.09
2023-03-17T08:31:50.603Z,93295.19
2023-03-17T08:34:55.398Z,93307.56
2023-03-17T08:37:59.512Z,93302.00
2023-03-17T08:41:08.589Z,93301.03
2023-03-17T08:44:12.684Z,93298.03
2023-03-17T08:47:16.840Z,93307.88
2023-03-17T08:50:24.385Z,93305.81
2023-03-17T08:53:27.815Z,93287.66
2023-03-17T08:56:32.088Z,93288.22
2023-03-17T08:59:35.977Z,93292.00
2023-03-17T09:02:43.563Z,93296.91
2023-03-17T09:05:48.445Z,93298.84
2023-03-17T09:08:56.204Z,93294.66
2023-03-17T09:11:59.870Z,93300.88
2023-03-17T09:15:03.378Z,93292.63
2023-03-17T09:18:08.174Z,93296.09
2023-03-17T09:21:13.571Z,93295.91
2023-03-17T09:24:16.769Z,93286.63
2023-03-17T09:27:20.920Z,93298.69
2023-03-17T09:30:24.095Z,93299.88
2023-03-17T09:33:28.065Z,93287.03
2023-03-17T09:36:31.345Z,93287.91
2023-03-17T09:39:35.034Z,93292.75
2023-03-17T09:42:53.343Z,93278.41
2023-03-17T09:45:57.485Z,93278.56
2023-03-17T09:49:03.989Z,93283.19
2023-03-17T09:52:14.656Z,93273.25
2023-03-17T09:55:27.564Z,93279.13
2023-03-17T09:58:36.467Z,93274.44
2023-03-17T10:01:43.539Z,93273.09
2023-03-17T10:04:48.393Z,93271.44
2023-03-17T10:08:31.753Z,93274.41
2023-03-17T10:11:43.163Z,93271.78
2023-03-17T10:15:03.635Z,93264.34
2023-03-17T10:18:14.454Z,93263.81
2023-03-17T10:21:32.222Z,93261.41
2023-03-17T10:24:36.908Z,93263.38
2023-03-17T10:27:41.824Z,93264.03
2023-03-17T10:30:45.423Z,93270.38
2023-03-17T10:33:53.436Z,93280.81
2023-03-17T10:37:04.690Z,93268.94
2023-03-17T10:40:11.544Z,93270.66
2023-03-17T10:43:21.080Z,93272.13
2023-03-17T10:46:27.723Z,93281.59
2023-03-17T10:49:37.546Z,93278.59
2023-03-17T10:52:41.495Z,93276.03
2023-03-17T10:55:51.991Z,93286.16
2023-03-17T10:58:57.498Z,93286.09
2023-03-17T11:02:08.595Z,93278.50
2023-03-17T11:05:28.279Z,93288.94
2023-03-17T11:08:39.309Z,93283.94
2023-03-17T11:11:51.487Z,93292.09
2023-03-17T11:15:09.956Z,93289.19
2023-03-17T11:18:19.909Z,93287.38
2023-03-17T11:22:06.439Z,93287.69
2023-03-17T11:25:29.579Z,93284.72
2023-03-17T11:28:44.331Z,93288.53
2023-03-17T11:32:00.088Z,93295.97
2023-03-17T11:35:35.709Z,93301.81
2023-03-17T11:38:53.520Z,93298.75
2023-03-17T11:42:29.441Z,93304.78
2023-03-17T11:45:41.539Z,93297.97
2023-03-17T11:48:55.908Z,93295.88
2023-03-17T11:52:30.992Z,93289.69
2023-03-17T11:55:48.323Z,93298.31
2023-03-17T11:59:21.128Z,93285.28
2023-03-17T12:02:43.248Z,93295.72
2023-03-17T12:05:56.161Z,93292.47
2023-03-17T12:09:28.210Z,93303.81
2023-03-17T12:12:40.264Z,93303.75
2023-03-17T12:15:43.984Z,93306.00
2023-03-17T12:19:01.623Z,93303.78
2023-03-17T12:22:14.128Z,93288.19
2023-03-17T12:25:35.627Z,93306.47
2023-03-17T12:28:59.316Z,93311.31
2023-03-17T12:32:10.318Z,93317.06
2023-03-17T12:35:19.529Z,93308.47
2023-03-17T12:38:41.215Z,93308.91
2023-03-17T12:42:03.339Z,93318.72
2023-03-17T12:45:29.682Z,93320.75
2023-03-17T12:48:51.168Z,93318.56
2023-03-17T12:52:21.565Z,93316.78
2023-03-17T12:55:27.540Z,93320.41
2023-03-17T12:58:41.495Z,93311.38
2023-03-17T13:01:58.542Z,93307.69
2023-03-17T13:05:09.688Z,93314.84
2023-03-17T13:08:18.638Z,93316.97
2023-03-17T13:11:46.310Z,93323.31
2023-03-17T13:14:52.599Z,93328.84
2023-03-17T13:18:28.012Z,93336.69
2023-03-17T13:21:34.631Z,93340.53
2023-03-17T13:24:47.433Z,93339.06
2023-03-17T13:27:51.089Z,93341.06
2023-03-17T13:31:16.975Z,93342.97
2023-03-17T13:34:21.751Z,93349.63
2023-03-17T13:37:24.818Z,93343.06
2023-03-17T13:40:45.783Z,93349.84
2023-03-17T13:44:13.524Z,93342.25
2023-03-17T13:47:39.320Z,93355.38
2023-03-17T13:50:43.578Z,93348.13
2023-03-17T13:53:49.993Z,93346.66
2023-03-17T13:56:55.382Z,93344.53
2023-03-17T14:00:06.124Z,93349.81
2023-03-17T14:03:16.929Z,93345.03
2023-03-17T14:06:28.987Z,93341.69
2023-03-17T14:09:42.677Z,93337.47
2023-03-17T14:13:26.429Z,93336.00
2023-03-17T14:16:37.467Z,93334.84
2023-03-17T14:19:44.148Z,93335.44
2023-03-17T14:22:49.465Z,93333.00
2023-03-17T14:25:56.934Z,93330.47
2023-03-17T14:29:01.928Z,93332.19
2023-03-17T14:32:15.363Z,93336.41
2023-03-17T14:35:19.146Z,93343.84
2023-03-17T14:38:24.825Z,93339.84
2023-03-17T14:41:31.771Z,93346.97
2023-03-17T14:44:38.888Z,93350.97
2023-03-17T14:47:45.990Z,93349.91
2023-03-17T14:50:56.353Z,93348.25
2023-03-17T14:54:02.527Z,93359.78
2023-03-17T14:57:09.356Z,93354.91
2023-03-17T15:00:38.116Z,93362.13
2023-03-17T15:03:57.480Z,93363.00
2023-03-17T15:07:04.536Z,93370.06
2023-03-17T15:10:20.223Z,93363.78
2023-03-17T15:13:26.754Z,93366.78
2023-03-17T15:16:34.922Z,93352.00
2023-03-17T15:19:48.450Z,93344.44
2023-03-17T15:23:15.584Z,93334.97
2023-03-17T15:26:32.147Z,93336.13
2023-03-17T15:29:37.059Z,93337.28
2023-03-17T15:32:41.097Z,93329.47
2023-03-17T15:35:45.284Z,93339.19
2023-03-17T15:38:48.409Z,93336.66
2023-03-17T15:41:51.900Z,93330.97
2023-03-17T15:44:56.107Z,93342.22
2023-03-17T15:48:00.234Z,93343.56
2023-03-17T15:51:05.688Z,93342.22
2023-03-17T15:54:15.257Z,93336.94
2023-03-17T15:57:19.682Z,93330.78
2023-03-17T16:00:25.453Z,93331.16
2023-03-17T16:03:33.987Z,93332.91
2023-03-17T16:06:37.173Z,93330.19
2023-03-17T16:09:40.827Z,93335.22
2023-03-17T16:12:44.271Z,93330.44
2023-03-17T16:16:00.508Z,93340.31
2023-03-17T16:19:06.507Z,93331.38
2023-03-17T16:22:37.962Z,93331.19
2023-03-17T16:25:41.616Z,93328.91
2023-03-17T16:28:48.257Z,93332.22
2023-03-17T16:31:52.273Z,93317.00
2023-03-17T16:34:56.024Z,93313.09
2023-03-17T16:37:59.895Z,93311.63
2023-03-17T16:41:31.338Z,93310.84
2023-03-17T16:44:35.656Z,93314.91
2023-03-17T16:47:38.720Z,93308.72
2023-03-17T16:50:43.373Z,93312.47
2023-03-17T16:53:46.532Z,93320.38
2023-03-17T16:56:50.340Z,93319.13
2023-03-17T16:59:56.679Z,93312.97
2023-03-17T17:03:00.125Z,93310.91
2023-03-17T17:06:03.529Z,93318.69
2023-03-17T17:09:07.429Z,93317.78
2023-03-17T17:12:12.445Z,93313.69
2023-03-17T17:15:17.816Z,93312.53
2023-03-17T17:18:22.893Z,93323.41
2023-03-17T17:21:31.113Z,93325.50
2023-03-17T17:24:35.019Z,93331.81
2023-03-17T17:27:39.633Z,93335.81
2023-03-17T17:30:46.133Z,93324.94
2023-03-17T17:33:50.026Z,93331.28
2023-03-17T17:36:53.528Z,93327.16
2023-03-17T17:39:57.690Z,93331.53
2023-03-17T17:43:00.943Z,93329.38
2023-03-17T17:46:05.088Z,93338.53
2023-03-17T17:49:09.179Z,93329.94
2023-03-17T17:52:13.215Z,93330.06
2023-03-17T17:55:17.388Z,93333.97
2023-03-17T17:58:24.329Z,93321.38
2023-03-17T18:01:28.274Z,93328.69
2023-03-17T18:04:32.534Z,93317.75
2023-03-17T18:07:36.754Z,93319.22
2023-03-17T18:10:40.828Z,93322.44
2023-03-17T18:13:44.571Z,93318.19
2023-03-17T18:16:48.570Z,93319.34
2023-03-17T18:19:56.178Z,93323.13
2023-03-17T18:23:00.364Z,93321.16
2023-03-17T18:26:04.656Z,93337.63
2023-03-17T18:29:09.712Z,93338.66
2023-03-17T18:32:13.810Z,93327.53
2023-03-17T18:35:20.905Z,93343.09
2023-03-17T18:38:24.762Z,93329.06
2023-03-17T18:41:29.043Z,93330.88
2023-03-17T18:44:33.100Z,93324.00
2023-03-17T18:47:38.612Z,93323.19
2023-03-17T18:50:41.902Z,93324.56
2023-03-17T18:53:46.233Z,93319.88
2023-03-17T18:56:49.774Z,93316.22
2023-03-17T18:59:53.964Z,93320.31
2023-03-17T19:02:57.797Z,93310.28
2023-03-17T19:06:15.469Z,93310.59
2023-03-17T19:09:18.512Z,93310.00
2023-03-17T19:12:21.965Z,93296.72
2023-03-17T19:15:24.997Z,93302.28
2023-03-17T19:18:28.662Z,93296.47
2023-03-17T19:21:31.689Z,93291.34
2023-03-17T19:24:37.117Z,93288.16
2023-03-17T19:27:40.571Z,93289.03
2023-03-17T19:30:45.972Z,93285.84
2023-03-17T19:33:49.651Z,93285.63
2023-03-17T19:36:53.613Z,93278.56
2023-03-17T19:39:57.231Z,93280.09
2023-03-17T19:43:01.295Z,93279.66
2023-03-17T19:46:04.507Z,93286.19
2023-03-17T19:49:07.967Z,93277.13
2023-03-17T19:52:11.664Z,93278.94
2023-03-17T19:55:17.041Z,93281.94
2023-03-17T19:58:20.760Z,93273.25
2023-03-17T20:01:25.088Z,93280.09
2023-03-17T20:04:29.090Z,93283.44
2023-03-17T20:07:33.734Z,93283.75
2023-03-17T20:10:38.883Z,93288.09
2023-03-17T20:13:42.370Z,93290.03
2023-03-17T20:16:46.674Z,93287.91
2023-03-17T20:19:49.966Z,93287.41
2023-03-17T20:22:53.686Z,93284.06
2023-03-17T20:25:58.237Z,93289.84
2023-03-17T20:29:02.672Z,93295.00
2023-03-17T20:32:06.829Z,93286.50
2023-03-17T20:35:10.216Z,93296.31
2023-03-17T20:38:15.526Z,93302.94
2023-03-17T20:41:20.156Z,93292.81
2023-03-17T20:44:24.864Z,93297.91
2023-03-17T20:47:28.914Z,93295.28
2023-03-17T20:50:35.322Z,93294.19
2023-03-17T20:53:39.513Z,93297.50
2023-03-17T20:56:43.523Z,93288.81
2023-03-17T20:59:47.619Z,93291.56
2023-03-17T21:02:52.116Z,93285.38
2023-03-17T21:05:56.444Z,93300.81
2023-03-17T21:08:59.699Z,93302.19
2023-03-17T21:12:03.033Z,93293.00
2023-03-17T21:15:11.093Z,93310.50
2023-03-17T21:18:15.084Z,93316.19
2023-03-17T21:21:20.125Z,93322.31
2023-03-17T21:24:32.296Z,93326.63
2023-03-17T21:27:38.598Z,93324.44
2023-03-17T21:30:45.434Z,93317.31
2023-03-17T21:33:51.440Z,93315.44
2023-03-17T21:36:55.338Z,93314.44
2023-03-17T21:39:59.657Z,93307.84
2023-03-17T21:43:03.555Z,93307.00
2023-03-17T21:46:07.102Z,93314.69
2023-03-17T21:49:12.204Z,93319.69
2023-03-17T21:52:16.451Z,93312.13
2023-03-17T21:55:20.020Z,93320.69
2023-03-17T21:58:24.726Z,93317.25
2023-03-17T22:01:28.622Z,93327.75
2023-03-17T22:04:32.813Z,93325.56
2023-03-17T22:07:36.753Z,93314.56
2023-03-17T22:10:41.583Z,93315.50
2023-03-17T22:13:45.659Z,93325.41
2023-03-17T22:16:50.611Z,93329.97
2023-03-17T22:19:54.536Z,93321.44
2023-03-17T22:22:58.631Z,93334.59
2023-03-17T22:26:02.063Z,93334.94
2023-03-17T22:29:06.659Z,93342.56
2023-03-17T22:32:11.354Z,93347.41
2023-03-17T22:35:15.072Z,93350.75
2023-03-17T22:38:18.906Z,93349.09
2023-03-17T22:41:25.537Z,93358.91
2023-03-17T22:44:28.908Z,93374.09
2023-03-17T22:47:33.060Z,93369.22
2023-03-17T22:50:37.115Z,93368.56
2023-03-17T22:53:41.480Z,93360.31
2023-03-17T22:56:45.865Z,93363.34
2023-03-17T22:59:49.954Z,93374.13
2023-03-17T23:02:53.060Z,93362.53
2023-03-17T23:06:00.558Z,93376.31
2023-03-17T23:09:05.373Z,93357.06
2023-03-17T23:12:10.249Z,93363.66
2023-03-17T23:15:13.963Z,93357.16
2023-03-17T23:18:19.025Z,93370.81
2023-03-17T23:21:38.497Z,93377.03
2023-03-17T23:24:42.513Z,93370.28
2023-03-17T23:27:47.760Z,93385.97
2023-03-17T23:30:51.658Z,93374.00
2023-03-17T23:33:55.598Z,93375.50
2023-03-17T23:36:59.964Z,93375.22
2023-03-17T23:40:03.518Z,93373.78
2023-03-17T23:43:07.598Z,93376.81
2023-03-17T23:46:11.953Z,93361.16
2023-03-17T23:49:15.682Z,93369.38
2023-03-17T23:52:19.620Z,93362.16
2023-03-17T23:55:24.186Z,93367.09
2023-03-17T23:58:28.183Z,93363.63
